Time;durP1;ratioP1;P1;durP2;ratioP2;P2;SDS_P1;SDS_P2;PMS_P1;PMS_P2;Temp;Humidity;BMP_temperature;BMP_pressure;BME280_temperature;BME280_humidity;BME280_pressure;Samples;Min_cycle;Max_cycle;Signal;HPM_P1;HPM_P2
2021/03/27 00:02:21;;;;;;;41.25;23.13;;;10.60;85.20;;;;;;4954701;28;20055;-74
2021/03/27 00:05:00;;;;;;;42.75;22.75;;;10.60;85.30;;;;;;4951787;28;20471;-74
2021/03/27 00:07:53;;;;;;;43.15;23.65;;;10.60;85.60;;;;;;4942734;28;20135;-74
2021/03/27 00:10:27;;;;;;;44.70;23.17;;;10.50;85.90;;;;;;4949204;28;20103;-74
2021/03/27 00:13:10;;;;;;;38.28;21.27;;;10.40;85.90;;;;;;4949034;28;20031;-74
2021/03/27 00:15:40;;;;;;;39.05;21.90;;;10.40;86.10;;;;;;4951551;28;20033;-74
2021/03/27 00:18:16;;;;;;;44.30;23.02;;;10.40;86.30;;;;;;4949620;28;20137;-74
2021/03/27 00:20:49;;;;;;;41.88;22.80;;;10.40;86.30;;;;;;4948926;28;20505;-73
2021/03/27 00:23:24;;;;;;;37.72;22.45;;;10.40;86.60;;;;;;4948410;28;20039;-74
2021/03/27 00:25:58;;;;;;;42.17;22.85;;;10.40;86.90;;;;;;4948136;28;20039;-74
2021/03/27 00:28:53;;;;;;;46.67;25.38;;;10.30;87.00;;;;;;4952614;28;20069;-74
2021/03/27 00:31:27;;;;;;;45.90;22.95;;;10.40;87.00;;;;;;4946356;28;20113;-74
2021/03/27 00:33:57;;;;;;;42.28;22.20;;;10.30;87.10;;;;;;4946799;28;20038;-73
2021/03/27 00:36:52;;;;;;;40.55;21.48;;;10.40;87.10;;;;;;4955578;28;20535;-74
2021/03/27 00:39:38;;;;;;;42.05;23.42;;;10.40;87.00;;;;;;4948181;28;20023;-74
2021/03/27 00:42:15;;;;;;;40.35;22.83;;;10.50;87.00;;;;;;4961807;28;20894;-73
2021/03/27 00:44:50;;;;;;;37.90;22.85;;;10.40;87.30;;;;;;4962307;28;20532;-72
2021/03/27 00:47:18;;;;;;;44.30;23.55;;;10.40;87.40;;;;;;4948725;28;21819;-73
2021/03/27 00:49:51;;;;;;;52.10;25.33;;;10.40;87.50;;;;;;4949823;28;20023;-73
2021/03/27 00:52:19;;;;;;;52.45;25.90;;;10.50;87.40;;;;;;4953533;28;20082;-74
2021/03/27 00:55:06;;;;;;;41.42;23.58;;;10.50;87.40;;;;;;4948466;28;20027;-74
2021/03/27 00:57:40;;;;;;;41.08;23.75;;;10.60;87.30;;;;;;4950154;28;20035;-74
2021/03/27 01:00:20;;;;;;;48.65;25.98;;;10.60;87.30;;;;;;4953879;28;20055;-72
2021/03/27 01:02:50;;;;;;;47.20;26.05;;;10.60;87.00;;;;;;4953696;28;20038;-73
2021/03/27 01:05:21;;;;;;;42.08;23.55;;;10.70;87.10;;;;;;4953358;28;20890;-72
2021/03/27 01:07:49;;;;;;;48.17;25.55;;;10.60;87.30;;;;;;4953167;28;20039;-72
2021/03/27 01:10:29;;;;;;;41.67;23.52;;;10.70;87.30;;;;;;4953162;28;20102;-73
2021/03/27 01:12:56;;;;;;;41.03;24.60;;;10.60;87.50;;;;;;4953086;28;20034;-74
2021/03/27 01:15:30;;;;;;;37.58;23.10;;;10.60;87.70;;;;;;4953760;28;20027;-73
2021/03/27 01:18:00;;;;;;;38.10;22.40;;;10.70;87.30;;;;;;4953126;28;20034;-74
2021/03/27 01:20:49;;;;;;;39.97;25.20;;;10.80;87.50;;;;;;4945222;28;20031;-73
2021/03/27 01:23:16;;;;;;;43.15;25.02;;;10.80;87.50;;;;;;4953790;28;20499;-74
2021/03/27 01:25:42;;;;;;;46.75;25.58;;;10.70;87.60;;;;;;4958171;28;20389;-73
2021/03/27 01:28:36;;;;;;;45.63;23.77;;;10.70;87.90;;;;;;4959727;28;20101;-73
2021/03/27 01:31:41;;;;;;;40.30;24.53;;;10.70;87.80;;;;;;4952442;28;20031;-72
2021/03/27 01:34:19;;;;;;;40.03;23.38;;;10.80;87.50;;;;;;4950854;28;20032;-73
2021/03/27 01:37:06;;;;;;;43.58;26.23;;;10.70;87.70;;;;;;4952923;28;20030;-74
2021/03/27 01:39:42;;;;;;;45.50;24.75;;;10.60;87.90;;;;;;4946887;28;20028;-74
2021/03/27 01:42:17;;;;;;;47.45;24.95;;;10.60;88.00;;;;;;4952765;28;20086;-73
2021/03/27 01:45:00;;;;;;;41.97;25.65;;;10.60;88.00;;;;;;4952618;28;20063;-73
2021/03/27 01:47:36;;;;;;;46.83;25.15;;;10.60;88.40;;;;;;4957685;28;20568;-73
2021/03/27 01:50:13;;;;;;;41.58;25.30;;;10.40;88.80;;;;;;4953125;28;20070;-73
2021/03/27 01:52:51;;;;;;;45.30;24.88;;;10.40;89.10;;;;;;4952453;28;20030;-73
2021/03/27 01:55:28;;;;;;;41.63;22.02;;;10.30;89.50;;;;;;4952701;28;20035;-73
2021/03/27 01:58:01;;;;;;;44.55;25.17;;;10.30;89.70;;;;;;4951663;28;20083;-73
2021/03/27 02:01:05;;;;;;;47.08;26.00;;;10.30;89.90;;;;;;4946186;28;20035;-73
2021/03/27 02:04:04;;;;;;;48.10;26.80;;;10.30;89.80;;;;;;4960820;28;20031;-74
2021/03/27 02:06:34;;;;;;;45.30;25.45;;;10.30;89.80;;;;;;4957815;28;20074;-74
2021/03/27 02:09:27;;;;;;;47.97;24.13;;;10.30;89.90;;;;;;4953445;28;20110;-72
2021/03/27 02:12:07;;;;;;;44.25;23.90;;;10.30;90.00;;;;;;4955246;28;20043;-73
2021/03/27 02:14:44;;;;;;;43.90;24.70;;;10.20;90.00;;;;;;4947764;28;20367;-74
2021/03/27 02:17:18;;;;;;;46.03;23.92;;;10.30;90.00;;;;;;4954215;28;20568;-73
2021/03/27 02:20:12;;;;;;;42.28;25.08;;;10.20;90.00;;;;;;4954580;28;20541;-73
2021/03/27 02:22:43;;;;;;;47.22;23.98;;;10.30;90.00;;;;;;4951534;28;20478;-74
2021/03/27 02:25:39;;;;;;;40.28;23.88;;;10.20;90.20;;;;;;4960005;28;20031;-73
2021/03/27 02:28:21;;;;;;;44.55;24.55;;;10.20;90.10;;;;;;4956099;28;20039;-73
2021/03/27 02:31:23;;;;;;;43.72;24.55;;;10.30;90.10;;;;;;4962031;28;20071;-73
2021/03/27 02:33:58;;;;;;;45.67;24.17;;;10.20;90.10;;;;;;4951169;28;20126;-73
2021/03/27 02:36:45;;;;;;;44.85;25.95;;;10.20;90.20;;;;;;4962966;28;20490;-73
2021/03/27 02:39:20;;;;;;;43.00;23.88;;;10.20;90.20;;;;;;4955898;28;20049;-74
2021/03/27 02:42:02;;;;;;;43.03;26.05;;;10.20;90.20;;;;;;4954689;28;20023;-73
2021/03/27 02:44:47;;;;;;;44.95;24.95;;;10.20;90.20;;;;;;4955396;28;20035;-73
2021/03/27 02:47:49;;;;;;;41.58;24.92;;;10.20;90.30;;;;;;4955804;28;20062;-74
2021/03/27 02:50:33;;;;;;;49.50;26.38;;;10.30;90.20;;;;;;4956423;28;20102;-74
2021/03/27 02:53:11;;;;;;;37.15;22.63;;;10.20;90.30;;;;;;4965091;28;20046;-73
2021/03/27 02:55:55;;;;;;;47.83;24.70;;;10.20;90.20;;;;;;4949700;28;20025;-73
2021/03/27 02:58:25;;;;;;;45.78;24.98;;;10.20;90.30;;;;;;4955616;28;20029;-73
2021/03/27 03:01:01;;;;;;;46.65;25.85;;;10.10;90.40;;;;;;4955109;28;20024;-73
2021/03/27 03:03:54;;;;;;;45.13;26.00;;;10.20;90.60;;;;;;4952278;28;20031;-73
2021/03/27 03:06:32;;;;;;;52.58;25.73;;;10.20;90.60;;;;;;4954516;28;20051;-73
2021/03/27 03:09:15;;;;;;;43.10;25.77;;;10.10;90.80;;;;;;4955237;28;20038;-73
2021/03/27 03:12:17;;;;;;;44.97;25.05;;;10.10;90.70;;;;;;4949994;28;20042;-73
2021/03/27 03:15:20;;;;;;;40.58;24.88;;;10.10;90.70;;;;;;4948336;28;20035;-73
2021/03/27 03:18:07;;;;;;;45.95;23.85;;;10.10;90.70;;;;;;4952018;28;20102;-73
2021/03/27 03:20:46;;;;;;;41.97;25.33;;;10.10;90.60;;;;;;4948240;28;20038;-73
2021/03/27 03:23:30;;;;;;;44.47;23.85;;;10.10;90.60;;;;;;4953440;28;20090;-73
2021/03/27 03:26:20;;;;;;;42.03;24.75;;;10.10;90.60;;;;;;4961164;28;20035;-73
2021/03/27 03:28:55;;;;;;;38.58;23.25;;;10.10;90.60;;;;;;4950003;28;20031;-73
2021/03/27 03:31:59;;;;;;;43.85;23.63;;;10.10;90.70;;;;;;4954202;28;20039;-73
2021/03/27 03:34:47;;;;;;;45.85;25.58;;;10.10;90.70;;;;;;4951011;28;20486;-74
2021/03/27 03:37:25;;;;;;;43.35;24.70;;;10.10;90.70;;;;;;4954676;28;20047;-73
2021/03/27 03:40:00;;;;;;;40.53;25.38;;;10.10;90.70;;;;;;4954805;28;20031;-73
2021/03/27 03:42:50;;;;;;;41.40;23.85;;;10.00;90.70;;;;;;4946320;28;20479;-73
2021/03/27 03:45:42;;;;;;;43.97;24.95;;;9.90;90.80;;;;;;4954542;28;20031;-71
2021/03/27 03:48:23;;;;;;;40.17;23.25;;;9.90;90.80;;;;;;4954844;28;20058;-73
2021/03/27 03:50:59;;;;;;;44.17;24.65;;;9.80;90.90;;;;;;4954186;28;20028;-73
2021/03/27 03:53:43;;;;;;;38.72;23.33;;;9.90;91.00;;;;;;4953842;28;20037;-73
2021/03/27 03:56:29;;;;;;;44.03;23.98;;;9.90;91.10;;;;;;4954483;28;20031;-73
2021/03/27 03:59:28;;;;;;;44.38;24.40;;;9.80;91.20;;;;;;4954417;28;20155;-73
2021/03/27 04:02:03;;;;;;;41.95;24.55;;;9.70;91.40;;;;;;4949245;28;20483;-73
2021/03/27 04:05:06;;;;;;;46.10;24.13;;;9.70;91.40;;;;;;4955538;28;20062;-73
2021/03/27 04:07:39;;;;;;;42.63;23.40;;;9.80;91.40;;;;;;4940665;28;20055;-73
2021/03/27 04:10:11;;;;;;;39.95;24.20;;;9.70;91.40;;;;;;4952487;28;20062;-74
2021/03/27 04:12:44;;;;;;;44.53;25.63;;;9.80;91.40;;;;;;4946230;28;20039;-73
2021/03/27 04:15:23;;;;;;;44.42;24.63;;;9.80;91.40;;;;;;4944945;28;20034;-73
2021/03/27 04:17:58;;;;;;;35.72;22.52;;;9.70;91.50;;;;;;4946798;28;20019;-73
2021/03/27 04:20:39;;;;;;;44.97;25.25;;;9.70;91.60;;;;;;4954061;28;20134;-73
2021/03/27 04:23:16;;;;;;;44.25;25.17;;;9.60;91.70;;;;;;4945983;28;20054;-73
2021/03/27 04:25:53;;;;;;;41.42;25.33;;;9.70;91.60;;;;;;4945500;28;20113;-74
2021/03/27 04:28:51;;;;;;;45.75;23.30;;;9.70;91.60;;;;;;4946353;28;20085;-73
2021/03/27 04:31:43;;;;;;;43.72;25.15;;;9.80;91.70;;;;;;4926709;28;20137;-73
2021/03/27 04:34:40;;;;;;;45.22;24.75;;;9.80;91.80;;;;;;4934769;28;20133;-73
2021/03/27 04:37:23;;;;;;;43.80;25.38;;;9.70;91.70;;;;;;4950587;28;20506;-73
2021/03/27 04:40:06;;;;;;;39.90;24.45;;;9.80;91.70;;;;;;4960467;28;20039;-73
2021/03/27 04:43:00;;;;;;;39.92;24.13;;;9.70;92.00;;;;;;4954742;28;20474;-73
2021/03/27 04:45:32;;;;;;;45.72;25.40;;;9.70;92.00;;;;;;4939031;28;20031;-73
2021/03/27 04:48:15;;;;;;;43.63;25.05;;;9.60;92.00;;;;;;4946048;28;20027;-73
2021/03/27 04:50:55;;;;;;;39.58;23.88;;;9.70;91.90;;;;;;4940806;28;20035;-73
2021/03/27 04:53:37;;;;;;;41.97;24.75;;;9.70;91.90;;;;;;4953646;28;20090;-73
2021/03/27 04:56:14;;;;;;;40.55;23.95;;;9.70;91.80;;;;;;4951101;28;20034;-73
2021/03/27 04:58:49;;;;;;;46.17;25.75;;;9.80;92.00;;;;;;4945725;28;20041;-73
2021/03/27 05:01:39;;;;;;;46.85;27.30;;;9.80;91.90;;;;;;4946562;28;20034;-73
2021/03/27 05:04:29;;;;;;;43.30;24.75;;;9.80;91.90;;;;;;4945578;28;20027;-73
2021/03/27 05:07:10;;;;;;;41.63;23.65;;;9.70;92.20;;;;;;4945479;28;20063;-73
2021/03/27 05:09:46;;;;;;;43.42;25.13;;;9.60;92.30;;;;;;4940133;28;20023;-73
2021/03/27 05:12:24;;;;;;;41.10;23.65;;;9.70;92.40;;;;;;4946669;28;20070;-74
2021/03/27 05:15:15;;;;;;;37.20;23.77;;;9.70;92.50;;;;;;4954277;28;20030;-73
2021/03/27 05:17:43;;;;;;;41.22;25.30;;;9.70;92.40;;;;;;4950586;28;20031;-73
2021/03/27 05:20:12;;;;;;;42.13;24.75;;;9.80;92.30;;;;;;4947703;28;20423;-73
2021/03/27 05:22:56;;;;;;;45.88;25.10;;;9.80;92.40;;;;;;4952775;28;20019;-73
2021/03/27 05:25:24;;;;;;;43.50;25.10;;;9.80;92.50;;;;;;4953047;28;20028;-74
2021/03/27 05:28:02;;;;;;;43.28;25.52;;;9.80;92.60;;;;;;4946418;28;20287;-73
2021/03/27 05:30:43;;;;;;;41.03;23.75;;;9.70;92.60;;;;;;4939166;28;20027;-73
2021/03/27 05:33:49;;;;;;;40.67;25.30;;;9.80;92.20;;;;;;4945733;28;20581;-73
2021/03/27 05:36:35;;;;;;;43.17;25.00;;;9.80;92.30;;;;;;4959371;28;20031;-72
2021/03/27 05:39:33;;;;;;;39.33;23.88;;;9.70;92.40;;;;;;4947017;28;20046;-73
2021/03/27 05:42:34;;;;;;;41.30;25.02;;;9.60;93.20;;;;;;4947856;28;20023;-73
2021/03/27 05:45:22;;;;;;;41.67;23.40;;;9.70;92.80;;;;;;4902287;28;20062;-73
2021/03/27 05:48:08;;;;;;;40.45;23.67;;;9.70;92.90;;;;;;4955651;28;20129;-73
2021/03/27 05:50:59;;;;;;;36.55;23.58;;;9.80;92.90;;;;;;4945371;28;20167;-73
2021/03/27 05:53:46;;;;;;;38.65;24.23;;;9.90;93.00;;;;;;4941986;28;20479;-73
2021/03/27 05:56:49;;;;;;;42.05;23.27;;;9.80;94.10;;;;;;4948851;28;20031;-73
2021/03/27 05:59:27;;;;;;;41.50;23.77;;;9.70;94.30;;;;;;4956770;28;20027;-74
2021/03/27 06:02:16;;;;;;;42.00;23.63;;;9.80;93.90;;;;;;4958546;28;20090;-73
2021/03/27 06:04:57;;;;;;;45.42;24.98;;;9.80;93.50;;;;;;4943247;28;20034;-73
2021/03/27 06:08:00;;;;;;;42.20;23.95;;;9.80;94.10;;;;;;4953529;28;20055;-74
2021/03/27 06:10:36;;;;;;;39.25;24.08;;;9.80;94.20;;;;;;4941500;28;20070;-73
2021/03/27 06:13:16;;;;;;;43.75;24.08;;;9.80;94.20;;;;;;4948627;28;20038;-74
2021/03/27 06:15:50;;;;;;;35.25;23.92;;;9.80;94.30;;;;;;4952980;28;20074;-73
2021/03/27 06:18:53;;;;;;;40.78;24.67;;;9.80;94.00;;;;;;4949316;28;20031;-73
2021/03/27 06:21:28;;;;;;;44.72;23.33;;;9.90;93.70;;;;;;4948192;28;20061;-74
2021/03/27 06:24:21;;;;;;;43.05;26.40;;;10.00;93.60;;;;;;4947522;28;20031;-74
2021/03/27 06:27:22;;;;;;;46.10;27.10;;;10.00;93.30;;;;;;4949795;28;20031;-73
2021/03/27 06:30:01;;;;;;;44.75;24.77;;;10.00;93.40;;;;;;4944091;28;20120;-73
2021/03/27 06:33:12;;;;;;;40.08;25.52;;;10.00;92.90;;;;;;4953615;28;20030;-74
2021/03/27 06:36:02;;;;;;;42.22;25.05;;;10.00;93.10;;;;;;4954655;28;20043;-73
2021/03/27 06:39:00;;;;;;;40.88;24.88;;;10.10;93.40;;;;;;4941499;28;20034;-74
2021/03/27 06:41:56;;;;;;;43.45;24.17;;;10.20;93.10;;;;;;4948128;28;20597;-73
2021/03/27 06:44:47;;;;;;;43.60;24.88;;;10.10;93.00;;;;;;4947862;28;20031;-73
2021/03/27 06:47:50;;;;;;;51.88;26.58;;;10.20;92.60;;;;;;4954729;28;20074;-74
2021/03/27 06:50:49;;;;;;;43.85;24.23;;;10.10;93.70;;;;;;4948242;28;20082;-73
2021/03/27 06:53:27;;;;;;;40.17;24.95;;;10.20;93.80;;;;;;4948427;28;20139;-73
2021/03/27 06:56:20;;;;;;;43.33;26.20;;;10.10;94.80;;;;;;4953633;28;20023;-73
2021/03/27 06:59:17;;;;;;;45.90;24.25;;;10.10;94.30;;;;;;4944674;28;20024;-73
2021/03/27 07:02:21;;;;;;;43.00;25.23;;;10.00;94.00;;;;;;4942343;28;20114;-73
2021/03/27 07:05:24;;;;;;;43.20;25.65;;;10.00;94.10;;;;;;4942859;28;20963;-74
2021/03/27 07:08:11;;;;;;;42.65;27.02;;;10.10;94.30;;;;;;4953606;28;20985;-73
2021/03/27 07:10:36;;;;;;;43.67;25.92;;;10.10;94.40;;;;;;4945408;28;20479;-73
2021/03/27 07:13:30;;;;;;;47.60;27.13;;;10.00;94.10;;;;;;4947299;28;20034;-74
2021/03/27 07:16:04;;;;;;;47.50;26.48;;;10.00;94.20;;;;;;4946778;28;20027;-73
2021/03/27 07:19:04;;;;;;;41.80;25.38;;;10.20;94.60;;;;;;4953729;28;20023;-73
2021/03/27 07:22:03;;;;;;;42.85;25.25;;;10.20;93.90;;;;;;4953777;28;20102;-73
2021/03/27 07:25:13;;;;;;;47.95;25.90;;;10.30;93.40;;;;;;4933813;28;20081;-73
2021/03/27 07:27:45;;;;;;;43.45;25.15;;;10.30;93.20;;;;;;4950583;28;20524;-73
2021/03/27 07:30:22;;;;;;;43.70;24.10;;;10.10;93.20;;;;;;4949379;28;20023;-73
2021/03/27 07:32:56;;;;;;;43.03;24.77;;;10.20;93.30;;;;;;4946987;28;20359;-73
2021/03/27 07:35:22;;;;;;;;;;;10.40;93.00;;;;;;4961381;28;20019;-74
2021/03/27 07:38:12;;;;;;;47.08;26.15;;;10.40;92.70;;;;;;4960641;28;19911;-74
2021/03/27 07:40:56;;;;;;;45.05;26.30;;;10.50;92.60;;;;;;4940005;28;20027;-73
2021/03/27 07:43:32;;;;;;;39.70;24.17;;;10.70;92.40;;;;;;4954582;28;20050;-74
2021/03/27 07:46:24;;;;;;;39.00;23.65;;;10.70;92.30;;;;;;4947003;28;20027;-73
2021/03/27 07:49:13;;;;;;;42.45;25.00;;;10.80;92.30;;;;;;4952826;28;20667;-73
2021/03/27 07:51:53;;;;;;;42.20;25.90;;;10.80;92.70;;;;;;4934604;28;20070;-73
2021/03/27 07:54:47;;;;;;;47.22;25.88;;;10.90;93.20;;;;;;4945247;28;20566;-73
2021/03/27 07:58:11;;;;;;;43.92;25.02;;;10.80;94.10;;;;;;4944676;28;20086;-74
2021/03/27 08:00:45;;;;;;;44.22;24.83;;;10.70;94.20;;;;;;4904834;29;20095;-73
2021/03/27 08:03:46;;;;;;;50.78;27.83;;;10.60;94.10;;;;;;4915600;29;20032;-74
2021/03/27 08:06:44;;;;;;;54.50;35.65;;;10.60;94.40;;;;;;4942267;28;20477;-73
2021/03/27 08:09:45;;;;;;;49.72;28.83;;;10.60;94.40;;;;;;4947147;28;20023;-73
2021/03/27 08:12:48;;;;;;;43.58;26.33;;;10.80;94.30;;;;;;4945170;28;20058;-73
2021/03/27 08:15:48;;;;;;;44.40;25.15;;;10.90;94.10;;;;;;4945008;28;20035;-72
2021/03/27 08:18:36;;;;;;;47.88;28.00;;;10.90;93.50;;;;;;4945222;28;20066;-72
2021/03/27 08:21:19;;;;;;;44.20;25.17;;;11.00;92.80;;;;;;4944851;28;20027;-73
2021/03/27 08:24:00;;;;;;;48.88;27.52;;;11.10;92.90;;;;;;4959822;28;21037;-72
2021/03/27 08:26:44;;;;;;;50.92;28.55;;;11.10;92.20;;;;;;4938925;28;20174;-73
2021/03/27 08:30:06;;;;;;;49.57;27.50;;;11.20;92.80;;;;;;4944083;28;20058;-73
2021/03/27 08:32:54;;;;;;;53.42;28.73;;;11.20;93.40;;;;;;4938160;28;20055;-72
2021/03/27 08:35:41;;;;;;;44.67;27.17;;;11.20;93.50;;;;;;4944762;28;20039;-72
2021/03/27 08:38:38;;;;;;;44.58;28.52;;;11.30;93.90;;;;;;4944490;28;20035;-73
2021/03/27 08:41:22;;;;;;;51.03;26.80;;;11.40;93.30;;;;;;4945482;28;20150;-72
2021/03/27 08:44:13;;;;;;;44.33;27.27;;;11.30;93.20;;;;;;4945343;28;20411;-72
2021/03/27 08:47:09;;;;;;;52.72;26.75;;;11.30;93.10;;;;;;4941496;28;20492;-72
2021/03/27 08:50:01;;;;;;;54.70;26.45;;;11.20;93.20;;;;;;4941672;28;20059;-72
2021/03/27 08:52:39;;;;;;;49.85;27.67;;;11.20;93.10;;;;;;4935693;28;20117;-72
2021/03/27 08:55:20;;;;;;;47.78;27.20;;;11.20;92.70;;;;;;4958884;28;20035;-72
2021/03/27 08:58:14;;;;;;;47.65;26.92;;;11.30;92.80;;;;;;4936103;28;20042;-72
2021/03/27 09:01:15;;;;;;;45.80;26.95;;;11.40;93.10;;;;;;4945576;28;20037;-72
2021/03/27 09:04:13;;;;;;;46.65;26.58;;;11.40;92.70;;;;;;4944892;28;20346;-73
2021/03/27 09:07:12;;;;;;;49.47;28.20;;;11.30;92.40;;;;;;4926216;28;20054;-73
2021/03/27 09:09:48;;;;;;;44.88;26.95;;;11.50;92.60;;;;;;4926889;28;20070;-72
2021/03/27 09:12:40;;;;;;;47.97;26.27;;;11.60;92.40;;;;;;4935736;28;20109;-72
2021/03/27 09:15:34;;;;;;;46.08;27.05;;;11.50;92.30;;;;;;4932627;28;20035;-72
2021/03/27 09:18:30;;;;;;;45.55;26.30;;;11.60;92.30;;;;;;4930656;28;20090;-73
2021/03/27 09:21:21;;;;;;;45.53;26.25;;;11.60;92.00;;;;;;4938498;28;20034;-72
2021/03/27 09:24:29;;;;;;;47.03;26.45;;;11.60;92.30;;;;;;4939178;28;20035;-72
2021/03/27 09:27:14;;;;;;;45.40;27.95;;;11.70;91.70;;;;;;4946842;28;20046;-73
2021/03/27 09:29:59;;;;;;;58.67;27.92;;;11.80;91.70;;;;;;4948256;28;20459;-71
2021/03/27 09:32:49;;;;;;;47.03;27.20;;;11.90;91.80;;;;;;4941738;28;20117;-71
2021/03/27 09:35:56;;;;;;;51.28;29.30;;;11.80;92.40;;;;;;4937024;28;20062;-71
2021/03/27 09:38:44;;;;;;;52.78;27.70;;;11.70;92.80;;;;;;4939705;28;20029;-72
2021/03/27 09:41:21;;;;;;;47.72;26.25;;;11.70;92.80;;;;;;4935206;28;20027;-73
2021/03/27 09:44:05;;;;;;;47.40;28.15;;;11.70;93.10;;;;;;4934072;28;20685;-71
2021/03/27 09:46:37;;;;;;;48.53;28.10;;;11.70;93.40;;;;;;4933719;28;20035;-71
2021/03/27 09:49:27;;;;;;;49.80;26.67;;;11.60;93.00;;;;;;4939479;28;20030;-71
2021/03/27 09:51:58;;;;;;;45.78;28.70;;;11.50;93.10;;;;;;4933802;28;20118;-71
2021/03/27 09:55:01;;;;;;;44.75;27.23;;;11.50;93.10;;;;;;4933485;28;20078;-71
2021/03/27 09:57:37;;;;;;;51.55;28.15;;;11.50;92.90;;;;;;4917870;28;20043;-72
2021/03/27 10:00:02;;;;;;;48.60;28.05;;;11.60;93.50;;;;;;4935163;28;20753;-72
2021/03/27 10:02:58;;;;;;;53.25;29.05;;;11.70;92.80;;;;;;4942668;28;20063;-72
2021/03/27 10:05:32;;;;;;;41.75;25.80;;;11.80;92.90;;;;;;4935075;28;20069;-72
2021/03/27 10:08:27;;;;;;;47.05;28.13;;;11.70;92.40;;;;;;4932331;28;20722;-72
2021/03/27 10:11:06;;;;;;;44.03;25.92;;;11.80;92.50;;;;;;4932391;28;20121;-74
2021/03/27 10:13:38;;;;;;;52.53;27.77;;;11.90;92.50;;;;;;4933800;28;20038;-72
2021/03/27 10:16:08;;;;;;;55.30;24.92;;;11.90;92.30;;;;;;4932797;28;20037;-72
2021/03/27 10:18:45;;;;;;;49.20;27.13;;;12.10;91.80;;;;;;4933167;28;20074;-73
2021/03/27 10:21:37;;;;;;;47.20;27.25;;;12.00;92.00;;;;;;4933356;28;20553;-75
2021/03/27 10:24:16;;;;;;;42.85;27.58;;;12.00;92.20;;;;;;4932191;28;20037;-73
2021/03/27 10:27:06;;;;;;;44.30;28.20;;;12.00;92.00;;;;;;4932078;28;20049;-73
2021/03/27 10:29:56;;;;;;;44.30;24.90;;;12.00;91.50;;;;;;4935314;28;20030;-76
2021/03/27 10:32:31;;;;;;;45.30;27.95;;;12.00;92.10;;;;;;4934242;28;20039;-73
2021/03/27 10:35:17;;;;;;;46.60;27.88;;;12.10;91.60;;;;;;4933796;28;20043;-73
2021/03/27 10:38:09;;;;;;;47.88;27.35;;;12.00;91.70;;;;;;4932697;28;20106;-73
2021/03/27 10:40:45;;;;;;;46.25;27.58;;;12.10;91.60;;;;;;4936229;28;20035;-73
2021/03/27 10:43:46;;;;;;;46.40;28.55;;;12.10;91.90;;;;;;4934068;28;20057;-73
2021/03/27 10:46:30;;;;;;;52.45;28.25;;;12.00;91.70;;;;;;4933977;28;20043;-72
2021/03/27 10:49:11;;;;;;;45.08;27.27;;;12.00;92.00;;;;;;4934025;28;20837;-73
2021/03/27 10:51:53;;;;;;;48.88;29.90;;;12.00;91.80;;;;;;4933523;28;21858;-73
2021/03/27 10:54:43;;;;;;;46.83;27.00;;;11.90;91.70;;;;;;4934345;28;20125;-73
2021/03/27 10:57:36;;;;;;;49.00;29.23;;;11.90;91.70;;;;;;4935494;28;20040;-73
2021/03/27 11:00:18;;;;;;;47.33;26.13;;;12.00;91.90;;;;;;4966655;28;20190;-73
2021/03/27 11:03:29;;;;;;;45.65;25.67;;;11.90;91.90;;;;;;4938916;28;20031;-73
2021/03/27 11:06:17;;;;;;;50.05;28.92;;;12.00;92.10;;;;;;4910048;28;673501;-73
2021/03/27 11:08:55;;;;;;;47.95;26.50;;;12.20;92.30;;;;;;4930343;28;20035;-72
2021/03/27 11:12:05;;;;;;;46.13;27.15;;;12.30;92.20;;;;;;4964800;28;20029;-73
2021/03/27 11:15:02;;;;;;;48.38;28.05;;;12.30;91.80;;;;;;4935031;28;20036;-73
2021/03/27 11:17:46;;;;;;;42.88;26.42;;;12.30;91.80;;;;;;4933300;28;20031;-73
2021/03/27 11:20:17;;;;;;;47.43;28.20;;;12.20;92.00;;;;;;4935250;28;20027;-73
2021/03/27 11:23:21;;;;;;;43.58;27.63;;;12.30;92.30;;;;;;4929949;28;20280;-73
2021/03/27 11:26:17;;;;;;;44.97;27.70;;;12.30;92.20;;;;;;4932616;28;20042;-73
2021/03/27 11:28:54;;;;;;;43.78;26.42;;;12.30;91.80;;;;;;4932869;28;20019;-73
2021/03/27 11:31:49;;;;;;;45.00;26.65;;;12.30;91.80;;;;;;4933521;28;20042;-73
2021/03/27 11:34:23;;;;;;;47.67;26.83;;;12.40;92.00;;;;;;4935764;28;20135;-73
2021/03/27 11:37:32;;;;;;;43.00;26.73;;;12.50;92.20;;;;;;4928221;28;20027;-73
2021/03/27 11:40:22;;;;;;;50.67;28.85;;;12.50;92.30;;;;;;4908199;28;20071;-73
2021/03/27 11:43:07;;;;;;;46.25;26.50;;;12.50;92.00;;;;;;4933915;28;20034;-72
2021/03/27 11:45:41;;;;;;;40.40;25.48;;;12.70;92.50;;;;;;4937122;28;20042;-73
2021/03/27 11:48:26;;;;;;;47.30;25.73;;;12.80;92.20;;;;;;4932908;28;20062;-73
2021/03/27 11:51:05;;;;;;;44.33;26.45;;;12.80;91.90;;;;;;4932022;28;20061;-73
2021/03/27 11:53:36;;;;;;;46.78;27.67;;;12.80;91.40;;;;;;4933078;28;20045;-73
2021/03/27 11:56:14;;;;;;;38.85;24.10;;;12.80;91.50;;;;;;4934930;28;20042;-73
2021/03/27 12:02:22;;;;;;;41.30;24.20;;;13.10;91.60;;;;;;4933499;28;20038;-73
2021/03/27 12:05:02;;;;;;;45.53;26.00;;;13.20;91.20;;;;;;4934058;28;20027;-72
2021/03/27 12:07:49;;;;;;;44.60;26.60;;;13.40;91.50;;;;;;4935279;28;20051;-73
2021/03/27 12:10:36;;;;;;;43.95;25.88;;;13.40;91.10;;;;;;4932735;28;20771;-73
2021/03/27 12:13:13;;;;;;;49.63;27.35;;;13.40;90.90;;;;;;4933389;28;20379;-73
2021/03/27 12:15:51;;;;;;;41.78;25.70;;;13.50;91.10;;;;;;4933568;28;20042;-73
2021/03/27 12:19:00;;;;;;;41.60;25.55;;;13.60;90.90;;;;;;4932969;28;20031;-73
2021/03/27 12:21:29;;;;;;;45.25;24.98;;;13.70;91.10;;;;;;4933977;28;20027;-73
2021/03/27 12:24:05;;;;;;;42.58;25.70;;;13.70;90.80;;;;;;4941047;28;20030;-73
2021/03/27 12:27:08;;;;;;;41.60;26.73;;;13.80;90.80;;;;;;4962267;28;20058;-73
2021/03/27 12:29:44;;;;;;;39.00;24.83;;;13.90;91.10;;;;;;4903313;28;20492;-73
2021/03/27 12:32:48;;;;;;;40.45;25.13;;;13.80;90.40;;;;;;4961282;28;20483;-73
2021/03/27 12:35:25;;;;;;;45.45;25.63;;;13.80;90.50;;;;;;4953003;28;20042;-73
2021/03/27 12:38:06;;;;;;;41.53;25.98;;;13.80;90.30;;;;;;4945673;28;20027;-73
2021/03/27 12:40:40;;;;;;;39.45;23.23;;;13.80;90.40;;;;;;4946893;28;20066;-73
2021/03/27 12:43:24;;;;;;;41.53;25.50;;;13.90;90.30;;;;;;4934778;28;20031;-73
2021/03/27 12:46:16;;;;;;;44.83;25.42;;;13.90;90.20;;;;;;4929894;28;20027;-73
2021/03/27 12:49:07;;;;;;;36.30;22.75;;;14.10;87.90;;;;;;4931703;28;20489;-73
2021/03/27 12:51:44;;;;;;;35.08;24.20;;;14.20;89.90;;;;;;4932313;28;20106;-73
2021/03/27 12:54:28;;;;;;;39.22;24.55;;;14.40;90.00;;;;;;4933190;28;20900;-73
2021/03/27 12:57:27;;;;;;;36.55;22.77;;;14.30;88.80;;;;;;4931950;28;20047;-73
2021/03/27 13:00:11;;;;;;;40.53;25.45;;;14.40;86.70;;;;;;4931889;28;20030;-73
2021/03/27 13:02:56;;;;;;;38.33;25.90;;;14.40;88.60;;;;;;4936550;28;20039;-73
2021/03/27 13:05:41;;;;;;;37.45;23.75;;;14.50;90.10;;;;;;4932212;28;20026;-73
2021/03/27 13:08:10;;;;;;;37.85;24.38;;;14.60;90.00;;;;;;4930967;28;20091;-73
2021/03/27 13:10:38;;;;;;;41.67;25.42;;;14.60;88.80;;;;;;4938644;28;20097;-73
2021/03/27 13:13:20;;;;;;;40.47;23.88;;;14.60;88.50;;;;;;4944063;28;20031;-73
2021/03/27 13:16:02;;;;;;;39.78;23.08;;;15.00;88.50;;;;;;4945532;29;20106;-73
2021/03/27 13:18:52;;;;;;;35.85;24.58;;;15.30;89.50;;;;;;4943632;28;20042;-73
2021/03/27 13:21:18;;;;;;;33.72;22.73;;;15.20;87.20;;;;;;4936206;28;20035;-73
2021/03/27 13:23:48;;;;;;;36.80;24.02;;;15.20;87.20;;;;;;4933236;28;20048;-73
2021/03/27 13:26:27;;;;;;;40.83;24.33;;;15.50;88.80;;;;;;4932973;28;20043;-73
2021/03/27 13:29:32;;;;;;;39.13;22.23;;;15.60;86.50;;;;;;4940138;28;20663;-73
2021/03/27 13:32:20;;;;;;;40.97;23.00;;;15.80;86.20;;;;;;4931711;28;20474;-74
2021/03/27 13:35:02;;;;;;;31.73;21.42;;;16.30;87.30;;;;;;4931276;28;20085;-73
2021/03/27 13:37:40;;;;;;;39.80;23.27;;;16.30;85.80;;;;;;4930323;28;20432;-73
2021/03/27 13:40:17;;;;;;;32.40;20.65;;;16.30;85.00;;;;;;4938500;28;20620;-73
2021/03/27 13:43:03;;;;;;;43.40;24.13;;;16.10;85.10;;;;;;4945069;28;20027;-73
2021/03/27 13:45:58;;;;;;;31.55;21.95;;;16.30;84.40;;;;;;4940650;28;20080;-73
2021/03/27 13:48:37;;;;;;;36.55;23.70;;;16.40;85.50;;;;;;4910964;28;20510;-73
2021/03/27 13:51:11;;;;;;;35.88;21.77;;;16.40;84.10;;;;;;4930884;28;20039;-73
2021/03/27 13:53:58;;;;;;;34.47;21.85;;;16.40;85.60;;;;;;4931618;28;20055;-74
2021/03/27 13:56:27;;;;;;;40.63;22.35;;;16.60;84.40;;;;;;4934277;28;20034;-73
2021/03/27 13:59:17;;;;;;;28.92;20.52;;;16.40;84.40;;;;;;4933953;28;20708;-73
2021/03/27 14:01:47;;;;;;;34.58;22.10;;;16.50;84.20;;;;;;4938607;28;20158;-73